Time;durP1;ratioP1;P1;durP2;ratioP2;P2;SDS_P1;SDS_P2;PMS_P1;PMS_P2;Temp;Humidity;BMP_temperature;BMP_pressure;BME280_temperature;BME280_humidity;BME280_pressure;Samples;Min_cycle;Max_cycle;Signal;HPM_P1;HPM_P2
2022/01/22 00:02:22;;;;;;;6.15;3.40;;;-3.70;99.90;;;;;;5052935;28;20110;-80
2022/01/22 00:04:47;;;;;;;7.15;3.50;;;-3.80;99.90;;;;;;5069649;28;20037;-80
2022/01/22 00:07:13;;;;;;;3.60;3.15;;;-3.80;99.90;;;;;;5044085;28;20075;-79
2022/01/22 00:09:46;;;;;;;11.57;5.40;;;-3.80;99.90;;;;;;5068798;28;20036;-79
2022/01/22 00:12:22;;;;;;;8.90;4.82;;;-3.70;99.90;;;;;;5070966;28;20056;-79
2022/01/22 00:14:48;;;;;;;23.90;9.27;;;-3.70;99.90;;;;;;5052851;28;20044;-80
2022/01/22 00:17:13;;;;;;;12.13;5.53;;;-3.70;99.90;;;;;;5053387;28;20028;-80
2022/01/22 00:19:39;;;;;;;18.33;8.60;;;-3.70;99.90;;;;;;5052965;28;20147;-79
2022/01/22 00:22:05;;;;;;;11.18;6.97;;;-3.70;99.90;;;;;;5053308;28;20485;-79
2022/01/22 00:24:37;;;;;;;20.30;10.93;;;-3.70;99.90;;;;;;5070681;28;20497;-79
2022/01/22 00:27:03;;;;;;;8.88;5.03;;;-3.70;99.90;;;;;;5051217;28;20051;-79
2022/01/22 00:29:29;;;;;;;11.65;5.22;;;-3.80;99.90;;;;;;5062636;28;20035;-80
2022/01/22 00:31:54;;;;;;;14.65;7.70;;;-3.80;99.90;;;;;;5070950;28;20071;-79
2022/01/22 00:34:20;;;;;;;8.75;4.15;;;-3.80;99.90;;;;;;5053301;28;20028;-80
2022/01/22 00:36:45;;;;;;;10.40;4.05;;;-3.70;99.90;;;;;;5058449;28;20401;-80
2022/01/22 00:39:11;;;;;;;7.28;4.70;;;-3.80;99.90;;;;;;5070185;28;20432;-80
2022/01/22 00:41:37;;;;;;;7.57;4.05;;;-3.70;99.90;;;;;;5070766;28;20047;-79
2022/01/22 00:44:03;;;;;;;5.03;3.22;;;-3.70;99.90;;;;;;5070719;28;20047;-79
2022/01/22 00:46:28;;;;;;;6.20;3.60;;;-3.70;99.90;;;;;;5052559;28;20036;-79
2022/01/22 00:48:55;;;;;;;4.50;3.45;;;-3.70;99.90;;;;;;5044686;28;20367;-80
2022/01/22 00:51:20;;;;;;;13.20;5.57;;;-3.70;99.90;;;;;;5059938;28;20036;-79
2022/01/22 00:53:46;;;;;;;17.30;7.68;;;-3.70;99.90;;;;;;5052751;28;20025;-80
2022/01/22 00:56:13;;;;;;;13.43;6.93;;;-3.70;99.90;;;;;;5070316;28;20333;-80
2022/01/22 00:58:39;;;;;;;9.32;5.43;;;-3.70;99.90;;;;;;5052418;28;20033;-80
2022/01/22 01:01:05;;;;;;;8.25;4.55;;;-3.70;99.90;;;;;;5052261;28;20029;-80
2022/01/22 01:03:33;;;;;;;6.45;3.90;;;-3.70;99.90;;;;;;5052617;28;20051;-80
2022/01/22 01:06:00;;;;;;;9.45;4.40;;;-3.70;99.90;;;;;;5052048;28;20572;-80
2022/01/22 01:08:28;;;;;;;7.57;4.90;;;-3.70;99.90;;;;;;5050945;28;20091;-80
2022/01/22 01:10:54;;;;;;;28.45;11.43;;;-3.70;99.90;;;;;;5049906;28;20500;-80
2022/01/22 01:13:19;;;;;;;19.05;8.35;;;-3.70;99.90;;;;;;5069921;28;20099;-80
2022/01/22 01:16:13;;;;;;;19.27;7.40;;;-3.70;99.90;;;;;;5070178;28;20151;-80
2022/01/22 01:32:24;;;;;;;15.02;7.43;;;-3.80;99.90;;;;;;5070440;28;20497;-80
2022/01/22 01:34:51;;;;;;;22.48;9.15;;;-3.80;99.90;;;;;;5068461;28;20187;-80
2022/01/22 01:37:19;;;;;;;18.02;9.57;;;-3.80;99.90;;;;;;5043569;28;20037;-80
2022/01/22 01:39:48;;;;;;;7.82;4.68;;;-3.90;99.90;;;;;;5068301;28;20048;-80
2022/01/22 01:42:24;;;;;;;6.88;4.30;;;-3.90;99.90;;;;;;5050381;28;20028;-80
2022/01/22 01:44:50;;;;;;;8.80;5.03;;;-3.90;99.90;;;;;;5069103;28;21027;-80
2022/01/22 01:47:17;;;;;;;8.43;5.57;;;-3.90;99.90;;;;;;5050478;28;20485;-79
2022/01/22 01:49:43;;;;;;;10.75;6.57;;;-3.90;99.90;;;;;;5069111;28;20393;-80
2022/01/22 01:52:15;;;;;;;10.90;6.65;;;-3.90;99.90;;;;;;5069478;28;20509;-80
2022/01/22 01:59:56;;;;;;;41.38;18.02;;;-3.90;99.90;;;;;;5069468;28;20147;-80
2022/01/22 02:02:23;;;;;;;29.95;10.68;;;-3.90;99.90;;;;;;5066949;28;20024;-80
2022/01/22 02:04:49;;;;;;;18.52;8.13;;;-3.90;99.90;;;;;;5068954;28;20132;-81
2022/01/22 02:07:15;;;;;;;13.85;7.18;;;-3.90;99.90;;;;;;5051464;28;20150;-80
2022/01/22 02:09:42;;;;;;;17.38;7.78;;;-3.90;99.90;;;;;;5051066;28;20036;-80
2022/01/22 02:12:46;;;;;;;16.13;8.23;;;-3.80;99.90;;;;;;5051308;28;20101;-80
2022/01/22 02:23:33;;;;;;;12.60;7.40;;;-3.80;99.90;;;;;;5069177;28;20043;-80
2022/01/22 02:25:59;;;;;;;24.50;12.07;;;-3.70;99.90;;;;;;5067900;28;20421;-80
2022/01/22 02:28:24;;;;;;;25.85;14.05;;;-3.70;99.90;;;;;;5050129;28;20029;-80
2022/01/22 02:30:56;;;;;;;17.45;9.90;;;-3.70;99.90;;;;;;5068191;28;20036;-79
2022/01/22 02:36:00;;;;;;;14.10;6.70;;;-3.70;99.90;;;;;;5068881;28;20381;-79
2022/01/22 02:38:46;;;;;;;24.95;11.68;;;-3.70;99.90;;;;;;5067750;28;20102;-79
2022/01/22 02:41:17;;;;;;;22.73;10.07;;;-3.70;99.90;;;;;;5068146;28;20111;-80
2022/01/22 02:43:42;;;;;;;132.63;48.47;;;-3.70;99.90;;;;;;5050723;28;20076;-80
2022/01/22 02:46:08;;;;;;;263.58;95.75;;;-3.80;99.90;;;;;;5050721;28;20478;-80
2022/01/22 02:48:34;;;;;;;137.38;54.35;;;-3.90;99.90;;;;;;5050144;28;20025;-80
2022/01/22 02:51:00;;;;;;;29.55;14.57;;;-3.90;99.90;;;;;;5049958;28;20493;-80
2022/01/22 02:53:27;;;;;;;17.98;9.23;;;-3.90;99.90;;;;;;5047603;28;20036;-81
2022/01/22 02:55:54;;;;;;;15.93;8.48;;;-4.10;99.90;;;;;;5050728;28;20051;-80
2022/01/22 02:58:19;;;;;;;14.52;7.78;;;-4.10;99.90;;;;;;5059698;28;20027;-80
2022/01/22 03:00:45;;;;;;;14.38;8.32;;;-4.10;99.90;;;;;;5049983;28;20020;-80
2022/01/22 03:03:11;;;;;;;16.33;9.02;;;-4.20;99.90;;;;;;5067118;28;20044;-80
2022/01/22 03:05:36;;;;;;;14.57;9.27;;;-4.20;99.90;;;;;;5048929;28;20029;-80
2022/01/22 03:08:07;;;;;;;19.58;9.68;;;-4.20;99.90;;;;;;5066439;28;20094;-80
2022/01/22 03:10:33;;;;;;;16.38;8.48;;;-4.20;99.90;;;;;;5066923;28;20043;-80
2022/01/22 03:18:12;;;;;;;15.75;10.45;;;-4.20;99.90;;;;;;5067711;28;20029;-80
2022/01/22 03:29:04;;;;;;;19.35;9.98;;;-4.30;99.90;;;;;;5062257;28;20079;-80
2022/01/22 03:31:30;;;;;;;15.82;9.40;;;-4.40;99.90;;;;;;5046224;28;20393;-80
2022/01/22 03:33:56;;;;;;;20.55;9.98;;;-4.50;99.90;;;;;;5052249;28;20043;-80
2022/01/22 03:36:23;;;;;;;18.90;9.90;;;-4.50;99.90;;;;;;5051648;28;20233;-80
2022/01/22 03:38:50;;;;;;;17.25;10.75;;;-4.60;99.90;;;;;;5051841;28;20031;-80
2022/01/22 03:41:16;;;;;;;19.33;11.85;;;-4.60;99.90;;;;;;5069818;28;20512;-80
2022/01/22 03:43:43;;;;;;;18.98;11.18;;;-4.70;99.90;;;;;;5069265;28;20116;-80
2022/01/22 03:46:08;;;;;;;15.48;11.30;;;-4.70;99.90;;;;;;5051101;28;20397;-80
2022/01/22 03:48:35;;;;;;;23.25;11.38;;;-4.70;99.90;;;;;;5070204;28;20028;-80
2022/01/22 03:51:01;;;;;;;15.48;10.38;;;-4.80;99.90;;;;;;5052696;28;20025;-81
2022/01/22 03:53:27;;;;;;;18.67;9.80;;;-4.80;99.90;;;;;;5053903;28;20530;-80
2022/01/22 03:56:02;;;;;;;16.58;9.48;;;-4.80;99.90;;;;;;5069122;28;20095;-81
2022/01/22 03:58:42;;;;;;;12.38;7.85;;;-4.80;99.90;;;;;;5053244;28;20033;-81
2022/01/22 04:04:01;;;;;;;13.82;9.82;;;-4.50;99.90;;;;;;5070171;28;20044;-80
2022/01/22 04:09:03;;;;;;;18.70;9.77;;;-4.40;99.90;;;;;;5070350;28;20032;-81
2022/01/22 04:11:31;;;;;;;11.65;7.38;;;-4.40;99.90;;;;;;5052092;28;20040;-81
2022/01/22 04:14:01;;;;;;;16.35;9.57;;;-4.30;99.90;;;;;;5053153;28;20016;-81
2022/01/22 04:16:28;;;;;;;12.43;7.55;;;-4.30;99.90;;;;;;5052232;28;20057;-81
2022/01/22 04:27:12;;;;;;;16.80;9.07;;;-4.30;99.90;;;;;;5071981;28;20496;-81
2022/01/22 04:29:38;;;;;;;15.65;8.75;;;-4.30;99.90;;;;;;5071348;28;20032;-81
2022/01/22 04:32:04;;;;;;;18.70;10.13;;;-4.40;99.90;;;;;;5052769;28;20120;-81
2022/01/22 04:34:30;;;;;;;20.98;9.05;;;-4.40;99.90;;;;;;5071293;28;20029;-81
2022/01/22 04:36:56;;;;;;;20.27;10.55;;;-4.40;99.90;;;;;;5052770;28;20028;-81
2022/01/22 04:39:23;;;;;;;18.45;9.60;;;-4.40;99.90;;;;;;5053186;28;20036;-81
2022/01/22 04:41:51;;;;;;;15.52;8.88;;;-4.50;99.90;;;;;;5052255;28;20056;-81
2022/01/22 04:44:17;;;;;;;17.27;10.23;;;-4.50;99.90;;;;;;5069463;28;20409;-81
2022/01/22 04:49:13;;;;;;;13.57;6.97;;;-4.60;99.90;;;;;;5070451;28;20013;-80
2022/01/22 04:57:18;;;;;;;14.02;6.88;;;-4.60;99.90;;;;;;5049472;28;20039;-80
2022/01/22 04:59:44;;;;;;;13.48;7.85;;;-4.60;99.90;;;;;;5050653;28;20597;-81
2022/01/22 05:02:10;;;;;;;10.77;7.93;;;-4.60;99.90;;;;;;5070292;28;20070;-80
2022/01/22 05:04:35;;;;;;;17.45;8.65;;;-4.60;99.90;;;;;;5068683;28;20127;-80
2022/01/22 05:07:01;;;;;;;13.88;7.65;;;-4.60;99.90;;;;;;5050753;28;20025;-80
2022/01/22 05:09:27;;;;;;;15.60;8.52;;;-4.60;99.90;;;;;;5050703;28;20041;-80
2022/01/22 05:11:53;;;;;;;14.77;8.93;;;-4.60;99.90;;;;;;5051768;28;20398;-80
2022/01/22 05:14:18;;;;;;;14.45;7.40;;;-4.70;99.90;;;;;;5051830;28;20025;-80
2022/01/22 05:16:44;;;;;;;16.20;8.30;;;-4.70;99.90;;;;;;5069024;28;20045;-80
2022/01/22 05:19:23;;;;;;;18.88;8.65;;;-4.70;99.90;;;;;;5051768;28;20036;-81
2022/01/22 05:21:51;;;;;;;14.65;9.25;;;-4.80;99.90;;;;;;5068822;28;20047;-80
2022/01/22 05:24:22;;;;;;;15.65;9.70;;;-4.80;99.90;;;;;;5070365;28;20047;-81
2022/01/22 05:37:02;;;;;;;21.30;9.70;;;-4.90;99.90;;;;;;5069612;28;20025;-80
2022/01/22 05:39:30;;;;;;;24.15;11.20;;;-4.90;99.90;;;;;;5069035;28;20316;-80
2022/01/22 05:41:58;;;;;;;17.88;10.02;;;-4.90;99.90;;;;;;5052050;28;20066;-81
2022/01/22 05:44:24;;;;;;;18.77;10.70;;;-5.00;99.90;;;;;;5051282;28;20498;-80
2022/01/22 05:46:52;;;;;;;17.98;10.90;;;-5.00;99.90;;;;;;5067713;28;20033;-80
2022/01/22 05:49:20;;;;;;;18.90;10.52;;;-5.00;99.90;;;;;;5067564;28;20519;-80
2022/01/22 05:51:47;;;;;;;21.05;12.27;;;-5.00;99.90;;;;;;5069461;28;20534;-81
2022/01/22 05:59:39;;;;;;;39.10;16.15;;;-5.10;99.90;;;;;;5066389;28;20504;-81
2022/01/22 06:02:07;;;;;;;275.15;90.32;;;-5.10;99.90;;;;;;5050812;28;20116;-81
2022/01/22 06:04:32;;;;;;;170.85;61.58;;;-5.00;99.90;;;;;;5051073;28;20040;-81
2022/01/22 06:06:58;;;;;;;359.45;124.95;;;-5.00;99.90;;;;;;5050618;28;20397;-81
2022/01/22 06:09:25;;;;;;;366.13;126.97;;;-5.00;99.90;;;;;;5069294;28;20107;-81
2022/01/22 06:11:55;;;;;;;255.40;87.90;;;-5.00;99.90;;;;;;5069031;28;20024;-81
2022/01/22 06:14:21;;;;;;;52.45;19.13;;;-4.90;99.90;;;;;;5050960;28;20489;-81
2022/01/22 06:16:46;;;;;;;253.45;67.43;;;-4.90;99.90;;;;;;5050815;28;20024;-80
2022/01/22 06:19:13;;;;;;;219.65;67.28;;;-4.90;99.90;;;;;;5068426;28;20090;-80
2022/01/22 06:21:38;;;;;;;99.13;33.13;;;-4.80;99.90;;;;;;5068842;28;20037;-80
2022/01/22 06:24:04;;;;;;;126.55;41.58;;;-4.80;99.90;;;;;;5050448;28;20150;-80
2022/01/22 06:26:30;;;;;;;66.63;22.75;;;-4.80;99.90;;;;;;5050537;28;20123;-79
2022/01/22 06:28:55;;;;;;;93.28;27.63;;;-4.80;99.90;;;;;;5050843;28;20112;-80
2022/01/22 06:31:21;;;;;;;286.50;76.57;;;-4.80;99.90;;;;;;5050894;28;20020;-80
2022/01/22 06:33:46;;;;;;;162.93;53.55;;;-4.80;99.90;;;;;;5051520;28;20025;-81
2022/01/22 06:36:12;;;;;;;178.95;59.67;;;-4.70;99.90;;;;;;5049475;28;20440;-81
2022/01/22 06:38:38;;;;;;;20.35;11.10;;;-4.70;99.90;;;;;;5050449;28;20028;-81
2022/01/22 06:43:47;;;;;;;18.23;9.90;;;-4.60;99.90;;;;;;5066447;28;20036;-80
2022/01/22 06:46:13;;;;;;;65.28;21.02;;;-4.60;99.90;;;;;;5068242;28;20037;-80
2022/01/22 06:48:39;;;;;;;307.45;102.60;;;-4.50;99.90;;;;;;5069980;28;20039;-79
2022/01/22 06:51:05;;;;;;;85.57;31.63;;;-4.50;99.90;;;;;;5070600;28;20028;-80
2022/01/22 06:53:35;;;;;;;64.03;21.85;;;-4.50;99.90;;;;;;5070248;28;20418;-80
2022/01/22 06:56:02;;;;;;;63.22;20.08;;;-4.50;99.90;;;;;;5069964;28;20033;-80
2022/01/22 06:58:28;;;;;;;49.35;18.52;;;-4.50;99.90;;;;;;5049970;28;20406;-81
2022/01/22 07:00:54;;;;;;;200.88;70.00;;;-4.40;99.90;;;;;;5051149;28;20621;-80
2022/01/22 07:03:20;;;;;;;24.90;11.73;;;-4.40;99.90;;;;;;5067558;28;20028;-81
2022/01/22 07:05:45;;;;;;;101.95;30.10;;;-4.40;99.90;;;;;;5070994;28;20032;-81
2022/01/22 07:08:11;;;;;;;33.67;13.30;;;-4.30;99.90;;;;;;5055264;28;20044;-81
2022/01/22 07:10:37;;;;;;;195.38;56.25;;;-4.30;99.90;;;;;;5051852;28;20028;-81
2022/01/22 07:13:02;;;;;;;69.93;29.75;;;-4.30;99.90;;;;;;5070117;28;20031;-80
2022/01/22 07:15:28;;;;;;;47.50;18.38;;;-4.30;99.90;;;;;;5056056;28;20521;-79
2022/01/22 07:17:55;;;;;;;40.28;17.60;;;-4.30;99.90;;;;;;5074178;28;20059;-80
2022/01/22 07:20:28;;;;;;;179.63;52.50;;;-4.20;99.90;;;;;;5053604;28;20513;-81
2022/01/22 07:23:01;;;;;;;;;;;-4.20;99.90;;;;;;5054358;28;20397;-81
2022/01/22 07:25:27;;;;;;;;;;;-4.20;99.90;;;;;;5072205;28;19912;-81
2022/01/22 07:27:53;;;;;;;72.53;26.25;;;-4.10;99.90;;;;;;5068760;28;19904;-81
2022/01/22 07:30:19;;;;;;;24.15;12.00;;;-4.10;99.90;;;;;;5046485;28;20036;-82
2022/01/22 07:32:45;;;;;;;121.55;51.85;;;-4.20;99.90;;;;;;5069733;28;20058;-81
2022/01/22 07:35:19;;;;;;;43.20;18.45;;;-4.20;99.90;;;;;;5054843;28;20020;-80
2022/01/22 07:37:45;;;;;;;22.13;12.10;;;-4.20;99.90;;;;;;5072656;28;20044;-80
2022/01/22 07:40:11;;;;;;;68.28;27.02;;;-4.20;99.90;;;;;;5053016;28;20032;-79
2022/01/22 07:42:39;;;;;;;41.90;16.52;;;-4.10;99.90;;;;;;5063905;28;20033;-80
2022/01/22 07:45:06;;;;;;;37.08;15.52;;;-4.10;99.90;;;;;;5060412;28;20044;-80
2022/01/22 07:47:31;;;;;;;21.40;11.60;;;-4.20;99.90;;;;;;5041447;28;20390;-80
2022/01/22 07:49:57;;;;;;;69.45;33.03;;;-4.10;99.90;;;;;;5038535;28;20033;-79
2022/01/22 07:52:23;;;;;;;94.28;41.22;;;-4.10;99.90;;;;;;5050340;28;20045;-80
2022/01/22 07:54:49;;;;;;;68.10;26.77;;;-4.10;99.90;;;;;;5058864;28;20397;-80
2022/01/22 07:57:15;;;;;;;36.13;16.55;;;-4.00;99.90;;;;;;5071602;28;20033;-80
2022/01/22 07:59:40;;;;;;;37.50;17.30;;;-4.00;99.90;;;;;;5057499;28;20393;-79
2022/01/22 08:02:06;;;;;;;34.08;15.88;;;-4.00;99.90;;;;;;5067746;28;20032;-80
2022/01/22 08:04:33;;;;;;;24.13;12.68;;;-4.00;99.90;;;;;;5056717;28;20486;-79
2022/01/22 08:07:01;;;;;;;26.38;14.05;;;-4.00;99.90;;;;;;5054651;28;20048;-81
2022/01/22 08:09:27;;;;;;;24.70;12.45;;;-4.00;99.90;;;;;;5036410;28;20064;-79
2022/01/22 08:11:52;;;;;;;20.17;10.85;;;-4.00;99.90;;;;;;5054305;28;20394;-79
2022/01/22 08:14:18;;;;;;;25.05;11.80;;;-4.10;99.90;;;;;;5054445;28;20617;-80
2022/01/22 08:16:46;;;;;;;31.13;13.52;;;-3.90;99.90;;;;;;5052403;28;20040;-78
2022/01/22 08:19:13;;;;;;;30.42;17.45;;;-3.90;99.90;;;;;;5055213;28;20032;-79
2022/01/22 08:21:38;;;;;;;22.00;12.32;;;-3.80;99.90;;;;;;5055720;28;20033;-78
2022/01/22 08:24:04;;;;;;;22.55;11.80;;;-3.80;99.90;;;;;;5074301;28;20040;-80
2022/01/22 08:26:34;;;;;;;25.42;11.82;;;-3.80;99.90;;;;;;5073744;28;20039;-79
2022/01/22 08:29:02;;;;;;;26.05;14.15;;;-3.70;99.90;;;;;;5074041;28;20039;-80
2022/01/22 08:36:39;;;;;;;21.85;12.65;;;-3.70;99.90;;;;;;5068553;28;20385;-78
2022/01/22 08:39:05;;;;;;;23.23;12.27;;;-3.70;99.90;;;;;;5052918;28;20045;-79
2022/01/22 08:41:31;;;;;;;25.20;12.82;;;-3.60;99.90;;;;;;5034901;28;20045;-79
2022/01/22 08:43:58;;;;;;;27.17;11.75;;;-3.60;99.90;;;;;;5052874;28;20056;-79
2022/01/22 08:46:24;;;;;;;25.65;11.95;;;-3.40;99.90;;;;;;5034427;28;20112;-79
2022/01/22 08:48:50;;;;;;;21.13;10.05;;;-3.40;99.90;;;;;;5032628;28;20041;-79
2022/01/22 08:51:16;;;;;;;21.05;11.13;;;-3.50;99.90;;;;;;5033903;28;20055;-79
2022/01/22 08:53:41;;;;;;;21.50;11.80;;;-3.40;99.90;;;;;;5033810;28;20324;-79
2022/01/22 08:56:09;;;;;;;20.98;10.30;;;-3.40;99.90;;;;;;5033763;28;20037;-79
2022/01/22 08:58:36;;;;;;;21.77;9.75;;;-3.30;99.90;;;;;;5033593;28;20132;-79
2022/01/22 09:01:03;;;;;;;18.85;9.95;;;-3.40;99.90;;;;;;5052933;28;20080;-80
2022/01/22 09:03:29;;;;;;;21.10;10.20;;;-3.30;99.90;;;;;;5034784;28;20040;-80
2022/01/22 09:05:56;;;;;;;24.63;13.68;;;-3.20;99.90;;;;;;5053471;28;20479;-79
2022/01/22 09:08:24;;;;;;;35.53;20.52;;;-3.20;99.90;;;;;;5052639;28;20037;-80
2022/01/22 09:10:52;;;;;;;17.08;10.15;;;-3.10;99.90;;;;;;5035390;28;20048;-79
2022/01/22 09:13:22;;;;;;;23.63;12.10;;;-3.10;99.90;;;;;;5035516;28;20055;-79
2022/01/22 09:15:49;;;;;;;18.80;10.52;;;-3.10;99.90;;;;;;5035428;28;20406;-79
2022/01/22 09:18:14;;;;;;;19.08;10.30;;;-3.10;99.90;;;;;;5052365;28;20029;-79
2022/01/22 09:23:07;;;;;;;22.70;11.52;;;-3.10;99.90;;;;;;5053259;28;20048;-79
2022/01/22 09:25:34;;;;;;;24.60;11.45;;;-2.90;99.90;;;;;;5052947;28;20071;-79
2022/01/22 09:28:00;;;;;;;17.40;10.23;;;-2.90;99.90;;;;;;5034349;28;20529;-82
2022/01/22 09:30:26;;;;;;;23.00;9.38;;;-2.90;99.90;;;;;;5052664;28;20037;-79
2022/01/22 09:32:52;;;;;;;19.45;9.57;;;-2.90;99.90;;;;;;5035631;28;20072;-80
2022/01/22 09:35:17;;;;;;;19.50;9.25;;;-2.90;99.90;;;;;;5053605;28;20041;-80
2022/01/22 09:37:44;;;;;;;18.55;10.80;;;-2.80;99.90;;;;;;5035181;28;20584;-79
2022/01/22 09:40:12;;;;;;;15.93;8.63;;;-2.80;99.90;;;;;;5035335;28;20116;-79
2022/01/22 09:42:39;;;;;;;19.52;8.68;;;-2.60;99.90;;;;;;5035465;28;20033;-79
2022/01/22 09:45:06;;;;;;;19.90;11.40;;;-2.60;99.90;;;;;;5035461;28;20063;-79
2022/01/22 09:47:32;;;;;;;21.67;9.63;;;-2.50;99.90;;;;;;5035026;28;20041;-79
2022/01/22 09:49:58;;;;;;;23.45;11.95;;;-2.50;99.90;;;;;;5035218;28;20047;-79
2022/01/22 09:52:24;;;;;;;16.60;7.40;;;-2.60;99.90;;;;;;5053295;28;20036;-79
2022/01/22 09:54:50;;;;;;;18.02;9.30;;;-2.60;99.90;;;;;;5035215;28;20025;-79
2022/01/22 09:57:15;;;;;;;45.70;19.27;;;-2.60;99.90;;;;;;5035084;28;20112;-79
2022/01/22 09:59:41;;;;;;;68.05;25.23;;;-2.50;99.90;;;;;;5052811;28;20079;-79
2022/01/22 10:02:15;;;;;;;23.77;11.32;;;-2.50;99.90;;;;;;5035178;28;20433;-79
2022/01/22 10:04:45;;;;;;;18.33;9.25;;;-2.50;99.90;;;;;;5052784;28;20041;-79
2022/01/22 10:07:21;;;;;;;30.80;11.43;;;-2.50;99.90;;;;;;5034714;28;20052;-79
2022/01/22 10:10:02;;;;;;;17.45;8.23;;;-2.40;99.90;;;;;;5051314;28;20044;-79
2022/01/22 10:12:30;;;;;;;175.68;64.05;;;-2.40;99.90;;;;;;5049658;28;20490;-79
2022/01/22 10:15:13;;;;;;;81.07;29.10;;;-2.30;99.90;;;;;;5033379;28;20021;-79
2022/01/22 10:17:41;;;;;;;317.63;112.85;;;-2.40;99.90;;;;;;5052482;28;20064;-79
2022/01/22 10:20:40;;;;;;;475.00;156.52;;;-2.50;99.90;;;;;;5035896;28;20033;-79
2022/01/22 10:23:20;;;;;;;214.88;57.53;;;-2.50;99.90;;;;;;5054024;28;20176;-79
2022/01/22 10:25:57;;;;;;;22.23;9.68;;;-2.50;99.90;;;;;;5054549;28;20573;-79
2022/01/22 10:28:25;;;;;;;41.00;16.42;;;-2.60;99.90;;;;;;5054119;28;20402;-79
2022/01/22 10:30:57;;;;;;;28.92;11.25;;;-2.40;99.90;;;;;;5072327;28;20079;-79
2022/01/22 10:33:33;;;;;;;37.47;14.55;;;-2.50;99.90;;;;;;5054666;28;20053;-79
2022/01/22 10:36:14;;;;;;;37.88;18.48;;;-2.40;99.90;;;;;;5072585;28;20053;-79
2022/01/22 10:38:48;;;;;;;75.97;27.17;;;-2.40;99.90;;;;;;5050460;28;20497;-79
2022/01/22 10:41:16;;;;;;;127.05;36.67;;;-2.40;99.90;;;;;;5047337;28;20087;-79
2022/01/22 10:43:51;;;;;;;207.07;51.17;;;-2.30;99.90;;;;;;5065209;28;20562;-79
2022/01/22 10:46:33;;;;;;;179.80;43.95;;;-2.20;99.90;;;;;;5065313;28;21369;-79
2022/01/22 10:49:09;;;;;;;191.52;48.55;;;-2.20;99.90;;;;;;5048030;28;20162;-79
2022/01/22 10:51:52;;;;;;;41.90;13.63;;;-2.00;99.90;;;;;;5048259;28;20498;-79
2022/01/22 10:54:31;;;;;;;366.48;106.03;;;-1.90;99.90;;;;;;5046983;28;20497;-80
2022/01/22 10:57:12;;;;;;;198.18;62.35;;;-1.80;99.90;;;;;;5042658;28;20028;-79
2022/01/22 10:59:55;;;;;;;103.13;33.35;;;-1.90;99.90;;;;;;5047373;28;20055;-79
2022/01/22 11:02:35;;;;;;;70.70;22.70;;;-1.80;99.90;;;;;;5050679;28;20029;-79
2022/01/22 11:05:01;;;;;;;429.33;110.05;;;-1.80;99.90;;;;;;5070227;28;20048;-79
2022/01/22 11:07:26;;;;;;;162.38;42.92;;;-1.90;99.90;;;;;;5069832;28;20059;-79
2022/01/22 11:09:53;;;;;;;157.98;39.75;;;-1.90;99.90;;;;;;5068848;28;20043;-79
2022/01/22 11:12:18;;;;;;;87.40;30.70;;;-1.50;99.90;;;;;;5052558;28;20029;-79
2022/01/22 11:14:45;;;;;;;55.20;17.98;;;-1.50;99.90;;;;;;5070192;28;20028;-79
2022/01/22 11:17:11;;;;;;;380.27;115.55;;;-1.70;99.90;;;;;;5069802;28;20028;-80
2022/01/22 11:19:39;;;;;;;72.70;24.10;;;-1.60;99.90;;;;;;5069216;28;20086;-80
2022/01/22 11:22:08;;;;;;;124.00;33.40;;;-1.80;99.90;;;;;;5051540;28;20495;-79
2022/01/22 11:24:41;;;;;;;97.10;24.63;;;-1.90;99.90;;;;;;5048170;28;20041;-79
2022/01/22 11:27:09;;;;;;;25.98;10.25;;;-2.00;99.90;;;;;;5049983;28;20021;-79
2022/01/22 11:29:36;;;;;;;18.25;8.15;;;-2.20;99.90;;;;;;5047308;28;20025;-79
2022/01/22 11:32:08;;;;;;;171.27;49.60;;;-2.30;99.90;;;;;;5049853;28;20033;-79
2022/01/22 11:34:36;;;;;;;15.25;7.75;;;-2.40;99.90;;;;;;5066392;28;20028;-79
2022/01/22 11:37:23;;;;;;;100.55;30.05;;;-2.40;99.90;;;;;;5069358;28;20226;-79
2022/01/22 11:40:08;;;;;;;22.77;9.07;;;-2.40;99.90;;;;;;5046779;28;20474;-79
2022/01/22 11:43:39;;;;;;;108.43;31.02;;;-2.50;99.90;;;;;;5059823;28;20036;-79
2022/01/22 11:45:52;;;;;;;23.27;12.38;;;-2.40;99.90;;;;;;5052382;28;20075;-80
2022/01/22 11:48:20;;;;;;;22.20;10.38;;;-2.40;99.90;;;;;;5043454;28;20037;-79
2022/01/22 11:50:49;;;;;;;27.77;12.38;;;-2.40;99.90;;;;;;5047203;28;20082;-79
2022/01/22 11:53:24;;;;;;;22.55;10.02;;;-2.40;99.90;;;;;;5051022;28;20021;-79
2022/01/22 11:56:10;;;;;;;164.40;50.92;;;-2.50;99.90;;;;;;5071671;28;20413;-79
2022/01/22 12:01:52;;;;;;;69.18;19.58;;;-2.40;99.90;;;;;;5072584;28;20410;-79
2022/01/22 12:04:41;;;;;;;16.48;9.18;;;-2.30;99.90;;;;;;5060252;28;20059;-79
2022/01/22 12:07:07;;;;;;;36.03;13.10;;;-2.40;99.90;;;;;;5052726;28;20041;-79
2022/01/22 12:09:40;;;;;;;86.13;28.02;;;-2.40;99.90;;;;;;5038805;28;20044;-79
2022/01/22 12:15:10;;;;;;;40.35;14.13;;;-2.30;99.90;;;;;;5061400;28;20063;-78
2022/01/22 12:17:59;;;;;;;64.72;20.70;;;-2.10;99.90;;;;;;5041157;28;20033;-78
2022/01/22 12:23:06;;;;;;;26.70;11.07;;;-2.30;99.90;;;;;;5059913;28;20021;-78
2022/01/22 12:25:31;;;;;;;19.38;9.30;;;-2.30;99.90;;;;;;5048466;28;20044;-78
2022/01/22 12:27:58;;;;;;;24.67;10.25;;;-2.40;99.90;;;;;;5045162;28;20111;-78
2022/01/22 12:30:48;;;;;;;20.95;9.20;;;-2.50;99.90;;;;;;5063886;28;20029;-78
2022/01/22 12:33:29;;;;;;;21.90;10.63;;;-2.50;99.90;;;;;;5039352;28;20029;-77
2022/01/22 12:35:59;;;;;;;54.95;21.65;;;-2.50;99.90;;;;;;5037742;28;20036;-78
2022/01/22 12:38:45;;;;;;;22.75;9.63;;;-2.50;99.90;;;;;;5070247;28;20541;-78
2022/01/22 12:41:26;;;;;;;28.70;11.93;;;-2.50;99.90;;;;;;5065836;28;20039;-78
2022/01/22 12:44:15;;;;;;;37.63;14.65;;;-2.60;99.90;;;;;;5057807;28;20486;-78
2022/01/22 12:46:43;;;;;;;16.17;8.80;;;-2.50;99.90;;;;;;5054161;28;20056;-78
2022/01/22 12:49:12;;;;;;;19.65;9.30;;;-2.60;99.90;;;;;;5036388;28;20094;-78
2022/01/22 12:51:38;;;;;;;26.10;9.32;;;-2.60;99.90;;;;;;5036476;28;20029;-78
2022/01/22 12:54:04;;;;;;;22.33;9.13;;;-2.60;99.90;;;;;;5056784;28;20045;-78
2022/01/22 12:59:07;;;;;;;20.20;8.73;;;-2.70;99.90;;;;;;5063377;28;20429;-78
2022/01/22 13:01:34;;;;;;;71.43;25.33;;;-2.70;99.90;;;;;;5065207;28;20058;-78
2022/01/22 13:04:03;;;;;;;19.80;9.95;;;-2.80;99.90;;;;;;5050595;28;20045;-78
2022/01/22 13:06:40;;;;;;;20.27;10.35;;;-2.80;99.90;;;;;;5059385;28;20032;-78
2022/01/22 13:09:06;;;;;;;25.10;12.63;;;-2.80;99.90;;;;;;5068368;28;20095;-78
2022/01/22 13:11:33;;;;;;;32.40;12.10;;;-2.80;99.90;;;;;;5053900;28;20032;-79
2022/01/22 13:14:00;;;;;;;20.20;10.50;;;-2.80;99.90;;;;;;5070713;28;20067;-78
2022/01/22 13:16:25;;;;;;;22.40;12.77;;;-2.80;99.90;;;;;;5070084;28;20043;-78
2022/01/22 13:18:52;;;;;;;23.95;10.77;;;-2.70;99.90;;;;;;5071019;28;20029;-79
2022/01/22 13:21:20;;;;;;;26.00;11.27;;;-2.70;99.90;;;;;;5053116;28;20547;-78
2022/01/22 13:24:19;;;;;;;24.42;12.25;;;-2.70;99.90;;;;;;5052571;28;20460;-78
2022/01/22 13:26:54;;;;;;;25.38;10.93;;;-2.70;99.90;;;;;;5066175;28;20387;-78
2022/01/22 13:29:33;;;;;;;20.90;10.05;;;-2.70;99.90;;;;;;5055548;28;20032;-78
2022/01/22 13:32:06;;;;;;;23.45;10.65;;;-2.70;99.90;;;;;;5055714;28;20132;-78
2022/01/22 13:34:50;;;;;;;;;;;-2.70;99.90;;;;;;5073933;28;20147;-78
2022/01/22 13:45:19;;;;;;;19.70;9.45;;;-2.60;99.90;;;;;;5065609;28;20050;-78
2022/01/22 13:47:53;;;;;;;21.10;10.32;;;-2.60;99.90;;;;;;5045556;28;20033;-78
2022/01/22 13:50:21;;;;;;;29.65;14.00;;;-2.60;99.90;;;;;;5060027;28;20066;-78
2022/01/22 13:52:47;;;;;;;30.08;14.60;;;-2.60;99.90;;;;;;5046597;28;20039;-78
2022/01/22 13:55:14;;;;;;;24.50;12.65;;;-2.50;99.90;;;;;;5061472;28;20144;-78
2022/01/22 13:57:44;;;;;;;27.40;10.60;;;-2.50;99.90;;;;;;5049551;28;20066;-78
2022/01/22 14:00:16;;;;;;;28.08;13.77;;;-2.60;99.90;;;;;;5044134;28;20111;-78
2022/01/22 14:05:16;;;;;;;18.38;8.40;;;-2.60;99.90;;;;;;5067373;28;20040;-78
2022/01/22 14:07:48;;;;;;;22.77;11.25;;;-2.60;99.90;;;;;;5060372;28;20036;-78
2022/01/22 14:10:19;;;;;;;35.63;13.88;;;-2.70;99.90;;;;;;5043469;28;20021;-78
2022/01/22 14:15:24;;;;;;;19.08;9.13;;;-2.70;99.90;;;;;;5061830;28;20707;-78
2022/01/22 14:18:15;;;;;;;34.33;14.73;;;-2.70;99.90;;;;;;5063612;28;20033;-78
2022/01/22 14:20:43;;;;;;;26.70;12.88;;;-2.70;99.90;;;;;;5043751;28;20043;-78
2022/01/22 14:23:18;;;;;;;19.48;9.95;;;-2.70;99.90;;;;;;5042715;28;20702;-78
2022/01/22 14:26:11;;;;;;;25.40;11.57;;;-2.70;99.90;;;;;;5042255;28;20044;-77
2022/01/22 14:28:47;;;;;;;31.33;13.27;;;-2.70;99.90;;;;;;5059834;28;20040;-78
2022/01/22 14:31:31;;;;;;;28.45;14.07;;;-2.70;99.90;;;;;;5041354;28;20059;-78
2022/01/22 14:33:59;;;;;;;22.67;11.77;;;-2.80;99.90;;;;;;5064471;28;20075;-78
2022/01/22 14:36:28;;;;;;;44.50;22.27;;;-2.80;99.90;;;;;;5040586;28;20049;-78
2022/01/22 14:44:41;;;;;;;30.52;14.02;;;-2.80;99.90;;;;;;5068792;28;20424;-78